sensor_id;sensor_type;location;lat;lon;timestamp;P1;durP1;ratioP1;P2;durP2;ratioP2
9745;SDS011;4912;50.836;12.958;2023-02-28T00:01:16;7.30;;;3.37;;
9745;SDS011;4912;50.836;12.958;2023-02-28T00:03:50;7.27;;;3.10;;
9745;SDS011;4912;50.836;12.958;2023-02-28T00:06:23;8.07;;;3.47;;
9745;SDS011;4912;50.836;12.958;2023-02-28T00:08:54;6.93;;;3.35;;
9745;SDS011;4912;50.836;12.958;2023-02-28T00:11:25;5.97;;;2.88;;
9745;SDS011;4912;50.836;12.958;2023-02-28T00:13:56;7.20;;;3.40;;
9745;SDS011;4912;50.836;12.958;2023-02-28T00:16:26;6.30;;;3.42;;
9745;SDS011;4912;50.836;12.958;2023-02-28T00:19:00;5.97;;;3.15;;
9745;SDS011;4912;50.836;12.958;2023-02-28T00:21:30;11.47;;;3.60;;
9745;SDS011;4912;50.836;12.958;2023-02-28T00:24:00;7.45;;;3.22;;
9745;SDS011;4912;50.836;12.958;2023-02-28T00:26:31;6.00;;;3.40;;
9745;SDS011;4912;50.836;12.958;2023-02-28T00:29:02;6.93;;;3.43;;
9745;SDS011;4912;50.836;12.958;2023-02-28T00:31:32;6.82;;;3.40;;
9745;SDS011;4912;50.836;12.958;2023-02-28T00:34:06;7.45;;;3.10;;
9745;SDS011;4912;50.836;12.958;2023-02-28T00:36:36;8.60;;;3.23;;
9745;SDS011;4912;50.836;12.958;2023-02-28T00:39:07;9.93;;;3.58;;
9745;SDS011;4912;50.836;12.958;2023-02-28T00:41:38;10.90;;;3.60;;
9745;SDS011;4912;50.836;12.958;2023-02-28T00:44:08;7.53;;;3.50;;
9745;SDS011;4912;50.836;12.958;2023-02-28T00:46:39;7.00;;;3.30;;
9745;SDS011;4912;50.836;12.958;2023-02-28T00:49:12;11.43;;;3.47;;
9745;SDS011;4912;50.836;12.958;2023-02-28T00:51:42;6.40;;;3.50;;
9745;SDS011;4912;50.836;12.958;2023-02-28T00:54:15;6.47;;;3.50;;
9745;SDS011;4912;50.836;12.958;2023-02-28T00:56:46;10.32;;;3.78;;
9745;SDS011;4912;50.836;12.958;2023-02-28T00:59:17;6.57;;;3.50;;
9745;SDS011;4912;50.836;12.958;2023-02-28T01:04:23;7.23;;;3.60;;
9745;SDS011;4912;50.836;12.958;2023-02-28T01:06:54;7.40;;;3.80;;
9745;SDS011;4912;50.836;12.958;2023-02-28T01:09:24;8.35;;;3.70;;
9745;SDS011;4912;50.836;12.958;2023-02-28T01:11:54;11.23;;;4.03;;
9745;SDS011;4912;50.836;12.958;2023-02-28T01:14:25;8.77;;;4.25;;
9745;SDS011;4912;50.836;12.958;2023-02-28T01:16:55;9.17;;;4.03;;
9745;SDS011;4912;50.836;12.958;2023-02-28T01:19:33;6.93;;;3.50;;
9745;SDS011;4912;50.836;12.958;2023-02-28T01:22:04;8.23;;;4.17;;
9745;SDS011;4912;50.836;12.958;2023-02-28T01:24:36;6.17;;;3.73;;
9745;SDS011;4912;50.836;12.958;2023-02-28T01:27:07;6.18;;;3.50;;
9745;SDS011;4912;50.836;12.958;2023-02-28T01:29:38;8.77;;;3.65;;
9745;SDS011;4912;50.836;12.958;2023-02-28T01:32:08;8.20;;;3.63;;
9745;SDS011;4912;50.836;12.958;2023-02-28T01:34:42;9.82;;;4.03;;
9745;SDS011;4912;50.836;12.958;2023-02-28T01:37:12;7.50;;;3.50;;
9745;SDS011;4912;50.836;12.958;2023-02-28T01:39:43;8.02;;;3.90;;
9745;SDS011;4912;50.836;12.958;2023-02-28T01:42:13;8.63;;;3.93;;
9745;SDS011;4912;50.836;12.958;2023-02-28T01:47:50;7.87;;;3.80;;
9745;SDS011;4912;50.836;12.958;2023-02-28T01:50:28;9.53;;;3.67;;
9745;SDS011;4912;50.836;12.958;2023-02-28T01:53:04;6.77;;;3.90;;
9745;SDS011;4912;50.836;12.958;2023-02-28T01:55:40;9.17;;;4.13;;
9745;SDS011;4912;50.836;12.958;2023-02-28T01:58:16;7.80;;;3.77;;
9745;SDS011;4912;50.836;12.958;2023-02-28T02:00:46;7.57;;;3.47;;
9745;SDS011;4912;50.836;12.958;2023-02-28T02:03:20;7.57;;;4.28;;
9745;SDS011;4912;50.836;12.958;2023-02-28T02:05:53;10.13;;;4.27;;
9745;SDS011;4912;50.836;12.958;2023-02-28T02:08:25;8.67;;;3.90;;
9745;SDS011;4912;50.836;12.958;2023-02-28T02:10:59;7.73;;;3.93;;
9745;SDS011;4912;50.836;12.958;2023-02-28T02:13:38;8.00;;;4.00;;
9745;SDS011;4912;50.836;12.958;2023-02-28T02:16:32;8.00;;;3.80;;
9745;SDS011;4912;50.836;12.958;2023-02-28T02:19:28;7.37;;;4.03;;
9745;SDS011;4912;50.836;12.958;2023-02-28T02:22:41;6.47;;;3.67;;
9745;SDS011;4912;50.836;12.958;2023-02-28T02:25:51;8.13;;;3.83;;
9745;SDS011;4912;50.836;12.958;2023-02-28T02:31:38;9.60;;;3.47;;
9745;SDS011;4912;50.836;12.958;2023-02-28T02:34:46;10.37;;;4.23;;
9745;SDS011;4912;50.836;12.958;2023-02-28T02:37:27;12.37;;;4.30;;
9745;SDS011;4912;50.836;12.958;2023-02-28T02:40:09;9.27;;;3.95;;
9745;SDS011;4912;50.836;12.958;2023-02-28T02:42:45;12.30;;;5.07;;
9745;SDS011;4912;50.836;12.958;2023-02-28T02:45:24;7.93;;;4.10;;
9745;SDS011;4912;50.836;12.958;2023-02-28T02:48:02;9.90;;;4.80;;
9745;SDS011;4912;50.836;12.958;2023-02-28T02:50:39;8.10;;;4.23;;
9745;SDS011;4912;50.836;12.958;2023-02-28T02:53:18;8.20;;;3.70;;
9745;SDS011;4912;50.836;12.958;2023-02-28T02:55:59;13.40;;;6.63;;
9745;SDS011;4912;50.836;12.958;2023-02-28T02:58:34;12.70;;;7.27;;
9745;SDS011;4912;50.836;12.958;2023-02-28T03:01:10;11.50;;;4.47;;
9745;SDS011;4912;50.836;12.958;2023-02-28T03:03:55;7.10;;;4.23;;
9745;SDS011;4912;50.836;12.958;2023-02-28T03:06:31;9.43;;;4.10;;
9745;SDS011;4912;50.836;12.958;2023-02-28T03:09:02;12.17;;;4.50;;
9745;SDS011;4912;50.836;12.958;2023-02-28T03:11:34;11.23;;;4.50;;
9745;SDS011;4912;50.836;12.958;2023-02-28T03:14:20;8.83;;;4.43;;
9745;SDS011;4912;50.836;12.958;2023-02-28T03:20:16;11.57;;;4.63;;
9745;SDS011;4912;50.836;12.958;2023-02-28T03:23:03;9.27;;;4.90;;
9745;SDS011;4912;50.836;12.958;2023-02-28T03:25:51;11.73;;;4.87;;
9745;SDS011;4912;50.836;12.958;2023-02-28T03:28:30;11.77;;;4.83;;
9745;SDS011;4912;50.836;12.958;2023-02-28T03:31:07;10.53;;;5.00;;
9745;SDS011;4912;50.836;12.958;2023-02-28T03:33:44;11.03;;;4.27;;
9745;SDS011;4912;50.836;12.958;2023-02-28T03:36:24;9.17;;;4.67;;
9745;SDS011;4912;50.836;12.958;2023-02-28T03:39:02;10.73;;;5.20;;
9745;SDS011;4912;50.836;12.958;2023-02-28T03:41:36;11.87;;;6.20;;
9745;SDS011;4912;50.836;12.958;2023-02-28T03:44:15;10.87;;;4.90;;
9745;SDS011;4912;50.836;12.958;2023-02-28T03:46:51;9.90;;;5.07;;
9745;SDS011;4912;50.836;12.958;2023-02-28T03:49:28;10.27;;;4.60;;
9745;SDS011;4912;50.836;12.958;2023-02-28T03:52:04;11.33;;;5.67;;
9745;SDS011;4912;50.836;12.958;2023-02-28T03:54:41;9.77;;;5.07;;
9745;SDS011;4912;50.836;12.958;2023-02-28T03:57:15;12.27;;;5.50;;
9745;SDS011;4912;50.836;12.958;2023-02-28T03:59:56;10.88;;;5.28;;
9745;SDS011;4912;50.836;12.958;2023-02-28T04:02:37;10.57;;;5.03;;
9745;SDS011;4912;50.836;12.958;2023-02-28T04:05:08;9.50;;;4.80;;
9745;SDS011;4912;50.836;12.958;2023-02-28T04:07:41;12.90;;;5.40;;
9745;SDS011;4912;50.836;12.958;2023-02-28T04:10:15;10.33;;;5.60;;
9745;SDS011;4912;50.836;12.958;2023-02-28T04:12:46;11.57;;;5.60;;
9745;SDS011;4912;50.836;12.958;2023-02-28T04:15:17;11.30;;;5.53;;
9745;SDS011;4912;50.836;12.958;2023-02-28T04:17:51;11.40;;;5.17;;
9745;SDS011;4912;50.836;12.958;2023-02-28T04:20:21;13.00;;;5.60;;
9745;SDS011;4912;50.836;12.958;2023-02-28T04:22:51;10.53;;;6.13;;
9745;SDS011;4912;50.836;12.958;2023-02-28T04:25:25;13.13;;;5.73;;
9745;SDS011;4912;50.836;12.958;2023-02-28T04:27:55;10.50;;;6.27;;
9745;SDS011;4912;50.836;12.958;2023-02-28T04:30:25;10.15;;;5.90;;
9745;SDS011;4912;50.836;12.958;2023-02-28T04:32:56;10.77;;;5.67;;
9745;SDS011;4912;50.836;12.958;2023-02-28T04:35:26;15.43;;;6.50;;
9745;SDS011;4912;50.836;12.958;2023-02-28T04:37:56;10.63;;;5.77;;
9745;SDS011;4912;50.836;12.958;2023-02-28T04:40:30;17.30;;;7.03;;
9745;SDS011;4912;50.836;12.958;2023-02-28T04:43:00;23.03;;;11.10;;
9745;SDS011;4912;50.836;12.958;2023-02-28T04:45:30;13.03;;;5.63;;
9745;SDS011;4912;50.836;12.958;2023-02-28T04:48:01;12.60;;;6.30;;
9745;SDS011;4912;50.836;12.958;2023-02-28T04:50:32;10.93;;;5.45;;
9745;SDS011;4912;50.836;12.958;2023-02-28T04:53:02;11.17;;;6.10;;
9745;SDS011;4912;50.836;12.958;2023-02-28T04:55:35;14.40;;;6.63;;
9745;SDS011;4912;50.836;12.958;2023-02-28T04:58:06;11.80;;;5.97;;
9745;SDS011;4912;50.836;12.958;2023-02-28T05:00:37;12.48;;;6.57;;
9745;SDS011;4912;50.836;12.958;2023-02-28T05:03:07;17.45;;;8.38;;
9745;SDS011;4912;50.836;12.958;2023-02-28T05:05:38;14.95;;;7.38;;
9745;SDS011;4912;50.836;12.958;2023-02-28T05:08:08;13.20;;;6.40;;
9745;SDS011;4912;50.836;12.958;2023-02-28T05:10:42;11.90;;;6.43;;
9745;SDS011;4912;50.836;12.958;2023-02-28T05:13:12;13.53;;;7.40;;
9745;SDS011;4912;50.836;12.958;2023-02-28T05:15:43;11.60;;;6.43;;
9745;SDS011;4912;50.836;12.958;2023-02-28T05:18:13;10.90;;;7.17;;
9745;SDS011;4912;50.836;12.958;2023-02-28T05:20:43;15.17;;;6.63;;
9745;SDS011;4912;50.836;12.958;2023-02-28T05:23:14;14.52;;;6.88;;
9745;SDS011;4912;50.836;12.958;2023-02-28T05:25:53;14.57;;;7.77;;
9745;SDS011;4912;50.836;12.958;2023-02-28T05:28:24;12.60;;;6.23;;
9745;SDS011;4912;50.836;12.958;2023-02-28T05:30:55;12.82;;;6.70;;
9745;SDS011;4912;50.836;12.958;2023-02-28T05:33:25;13.20;;;6.77;;
9745;SDS011;4912;50.836;12.958;2023-02-28T05:35:56;12.87;;;6.30;;
9745;SDS011;4912;50.836;12.958;2023-02-28T05:38:26;13.27;;;6.93;;
9745;SDS011;4912;50.836;12.958;2023-02-28T05:40:59;12.90;;;6.30;;
9745;SDS011;4912;50.836;12.958;2023-02-28T05:43:29;14.43;;;7.53;;
9745;SDS011;4912;50.836;12.958;2023-02-28T05:46:01;13.03;;;7.10;;
9745;SDS011;4912;50.836;12.958;2023-02-28T05:48:38;12.97;;;7.17;;
9745;SDS011;4912;50.836;12.958;2023-02-28T05:51:12;14.47;;;6.83;;
9745;SDS011;4912;50.836;12.958;2023-02-28T05:53:42;13.57;;;7.60;;
9745;SDS011;4912;50.836;12.958;2023-02-28T05:56:17;14.13;;;8.20;;
9745;SDS011;4912;50.836;12.958;2023-02-28T05:58:47;13.33;;;7.10;;
9745;SDS011;4912;50.836;12.958;2023-02-28T06:01:22;14.60;;;7.63;;
9745;SDS011;4912;50.836;12.958;2023-02-28T06:04:01;14.87;;;7.63;;
9745;SDS011;4912;50.836;12.958;2023-02-28T06:06:38;16.70;;;8.20;;
9745;SDS011;4912;50.836;12.958;2023-02-28T06:09:08;16.67;;;8.00;;
9745;SDS011;4912;50.836;12.958;2023-02-28T06:11:41;18.90;;;8.82;;
9745;SDS011;4912;50.836;12.958;2023-02-28T06:14:15;16.47;;;8.80;;
9745;SDS011;4912;50.836;12.958;2023-02-28T06:16:48;15.00;;;7.53;;
9745;SDS011;4912;50.836;12.958;2023-02-28T06:19:18;13.95;;;7.85;;
9745;SDS011;4912;50.836;12.958;2023-02-28T06:21:50;13.10;;;7.80;;
9745;SDS011;4912;50.836;12.958;2023-02-28T06:24:27;14.87;;;7.73;;
9745;SDS011;4912;50.836;12.958;2023-02-28T06:27:00;17.27;;;8.10;;
9745;SDS011;4912;50.836;12.958;2023-02-28T06:29:32;17.07;;;8.50;;
9745;SDS011;4912;50.836;12.958;2023-02-28T06:32:06;18.00;;;9.00;;
9745;SDS011;4912;50.836;12.958;2023-02-28T06:34:36;15.50;;;8.50;;
9745;SDS011;4912;50.836;12.958;2023-02-28T06:37:07;18.73;;;9.40;;
9745;SDS011;4912;50.836;12.958;2023-02-28T06:39:39;17.90;;;9.77;;
9745;SDS011;4912;50.836;12.958;2023-02-28T06:42:12;16.10;;;8.98;;
9745;SDS011;4912;50.836;12.958;2023-02-28T06:44:46;15.80;;;8.50;;
9745;SDS011;4912;50.836;12.958;2023-02-28T06:47:16;17.40;;;8.83;;
9745;SDS011;4912;50.836;12.958;2023-02-28T06:49:47;16.60;;;8.67;;
9745;SDS011;4912;50.836;12.958;2023-02-28T06:52:17;17.33;;;8.80;;
9745;SDS011;4912;50.836;12.958;2023-02-28T06:54:49;14.05;;;8.35;;
9745;SDS011;4912;50.836;12.958;2023-02-28T06:57:30;15.60;;;8.63;;
9745;SDS011;4912;50.836;12.958;2023-02-28T07:00:03;18.60;;;8.63;;
9745;SDS011;4912;50.836;12.958;2023-02-28T07:02:37;21.27;;;8.40;;
9745;SDS011;4912;50.836;12.958;2023-02-28T07:05:08;17.57;;;8.47;;
9745;SDS011;4912;50.836;12.958;2023-02-28T07:07:39;16.23;;;8.55;;
9745;SDS011;4912;50.836;12.958;2023-02-28T07:10:12;19.10;;;9.00;;
9745;SDS011;4912;50.836;12.958;2023-02-28T07:12:48;16.77;;;8.03;;
9745;SDS011;4912;50.836;12.958;2023-02-28T07:15:19;16.00;;;8.73;;
9745;SDS011;4912;50.836;12.958;2023-02-28T07:17:49;16.13;;;8.77;;
9745;SDS011;4912;50.836;12.958;2023-02-28T07:20:20;16.95;;;8.60;;
9745;SDS011;4912;50.836;12.958;2023-02-28T07:22:50;15.07;;;8.48;;
9745;SDS011;4912;50.836;12.958;2023-02-28T07:25:22;18.17;;;8.90;;
9745;SDS011;4912;50.836;12.958;2023-02-28T07:27:58;19.73;;;8.93;;
9745;SDS011;4912;50.836;12.958;2023-02-28T07:30:28;17.80;;;9.57;;
9745;SDS011;4912;50.836;12.958;2023-02-28T07:32:59;14.37;;;9.07;;
9745;SDS011;4912;50.836;12.958;2023-02-28T07:38:01;18.73;;;10.37;;
9745;SDS011;4912;50.836;12.958;2023-02-28T07:40:34;17.67;;;9.50;;
9745;SDS011;4912;50.836;12.958;2023-02-28T07:43:08;15.25;;;9.23;;
9745;SDS011;4912;50.836;12.958;2023-02-28T07:45:38;14.80;;;8.98;;
9745;SDS011;4912;50.836;12.958;2023-02-28T07:48:09;21.38;;;10.32;;
9745;SDS011;4912;50.836;12.958;2023-02-28T07:50:39;17.90;;;10.85;;
9745;SDS011;4912;50.836;12.958;2023-02-28T07:53:10;22.13;;;11.98;;
9745;SDS011;4912;50.836;12.958;2023-02-28T07:55:40;15.57;;;9.50;;
9745;SDS011;4912;50.836;12.958;2023-02-28T07:58:13;17.58;;;9.75;;
9745;SDS011;4912;50.836;12.958;2023-02-28T08:00:44;14.32;;;8.80;;
9745;SDS011;4912;50.836;12.958;2023-02-28T08:03:14;13.02;;;8.25;;
9745;SDS011;4912;50.836;12.958;2023-02-28T08:05:45;13.30;;;8.15;;
9745;SDS011;4912;50.836;12.958;2023-02-28T08:08:16;15.00;;;9.30;;
9745;SDS011;4912;50.836;12.958;2023-02-28T08:10:47;15.60;;;9.07;;
9745;SDS011;4912;50.836;12.958;2023-02-28T08:13:20;15.02;;;8.18;;
9745;SDS011;4912;50.836;12.958;2023-02-28T08:15:50;13.88;;;8.40;;
9745;SDS011;4912;50.836;12.958;2023-02-28T08:18:21;14.43;;;8.52;;
9745;SDS011;4912;50.836;12.958;2023-02-28T08:20:52;14.60;;;8.73;;
9745;SDS011;4912;50.836;12.958;2023-02-28T08:23:23;14.23;;;8.15;;
9745;SDS011;4912;50.836;12.958;2023-02-28T08:25:55;13.15;;;7.82;;
9745;SDS011;4912;50.836;12.958;2023-02-28T08:28:29;12.43;;;8.07;;
9745;SDS011;4912;50.836;12.958;2023-02-28T08:30:59;11.90;;;7.47;;
9745;SDS011;4912;50.836;12.958;2023-02-28T08:33:30;13.25;;;7.75;;
9745;SDS011;4912;50.836;12.958;2023-02-28T08:38:31;12.60;;;7.67;;
9745;SDS011;4912;50.836;12.958;2023-02-28T08:41:03;12.55;;;6.82;;
9745;SDS011;4912;50.836;12.958;2023-02-28T08:43:39;11.45;;;6.93;;
9745;SDS011;4912;50.836;12.958;2023-02-28T08:46:11;11.63;;;7.25;;
9745;SDS011;4912;50.836;12.958;2023-02-28T08:48:45;12.73;;;6.40;;
9745;SDS011;4912;50.836;12.958;2023-02-28T08:53:53;9.38;;;6.13;;
9745;SDS011;4912;50.836;12.958;2023-02-28T08:56:26;9.25;;;5.80;;
9745;SDS011;4912;50.836;12.958;2023-02-28T08:59:01;10.95;;;6.55;;
9745;SDS011;4912;50.836;12.958;2023-02-28T09:01:32;10.20;;;5.70;;
9745;SDS011;4912;50.836;12.958;2023-02-28T09:04:03;10.80;;;6.00;;
9745;SDS011;4912;50.836;12.958;2023-02-28T09:06:35;12.32;;;6.93;;
9745;SDS011;4912;50.836;12.958;2023-02-28T09:09:05;10.18;;;6.38;;
9745;SDS011;4912;50.836;12.958;2023-02-28T09:11:36;11.77;;;6.57;;
9745;SDS011;4912;50.836;12.958;2023-02-28T09:14:09;10.32;;;6.43;;
9745;SDS011;4912;50.836;12.958;2023-02-28T09:16:40;9.55;;;6.15;;
9745;SDS011;4912;50.836;12.958;2023-02-28T09:19:11;11.43;;;6.50;;
9745;SDS011;4912;50.836;12.958;2023-02-28T09:21:42;9.73;;;6.22;;
9745;SDS011;4912;50.836;12.958;2023-02-28T09:24:12;8.27;;;5.70;;
9745;SDS011;4912;50.836;12.958;2023-02-28T09:26:43;13.02;;;7.50;;
9745;SDS011;4912;50.836;12.958;2023-02-28T09:29:31;11.43;;;7.68;;
9745;SDS011;4912;50.836;12.958;2023-02-28T09:32:03;10.60;;;6.25;;
9745;SDS011;4912;50.836;12.958;2023-02-28T09:34:35;9.77;;;5.60;;
9745;SDS011;4912;50.836;12.958;2023-02-28T09:37:05;10.23;;;6.32;;
9745;SDS011;4912;50.836;12.958;2023-02-28T09:39:36;10.80;;;5.88;;
9745;SDS011;4912;50.836;12.958;2023-02-28T09:44:51;9.85;;;6.32;;
9745;SDS011;4912;50.836;12.958;2023-02-28T09:47:25;9.45;;;5.60;;
9745;SDS011;4912;50.836;12.958;2023-02-28T09:52:56;11.88;;;6.93;;
9745;SDS011;4912;50.836;12.958;2023-02-28T09:55:28;9.07;;;6.10;;
9745;SDS011;4912;50.836;12.958;2023-02-28T09:58:16;11.00;;;6.40;;
9745;SDS011;4912;50.836;12.958;2023-02-28T10:00:57;9.48;;;5.95;;
9745;SDS011;4912;50.836;12.958;2023-02-28T10:03:35;9.57;;;5.78;;
9745;SDS011;4912;50.836;12.958;2023-02-28T10:06:11;10.23;;;5.78;;
9745;SDS011;4912;50.836;12.958;2023-02-28T10:08:50;8.70;;;5.60;;
9745;SDS011;4912;50.836;12.958;2023-02-28T10:11:28;9.33;;;5.83;;
9745;SDS011;4912;50.836;12.958;2023-02-28T10:14:02;10.85;;;5.63;;
9745;SDS011;4912;50.836;12.958;2023-02-28T10:16:45;8.60;;;5.53;;
9745;SDS011;4912;50.836;12.958;2023-02-28T10:19:20;11.70;;;5.82;;
9745;SDS011;4912;50.836;12.958;2023-02-28T10:21:59;8.55;;;5.32;;
9745;SDS011;4912;50.836;12.958;2023-02-28T10:24:35;10.63;;;6.43;;
9745;SDS011;4912;50.836;12.958;2023-02-28T10:27:14;11.80;;;5.93;;
9745;SDS011;4912;50.836;12.958;2023-02-28T10:29:48;10.23;;;6.68;;
9745;SDS011;4912;50.836;12.958;2023-02-28T10:32:26;11.25;;;6.95;;
9745;SDS011;4912;50.836;12.958;2023-02-28T10:35:00;11.40;;;6.35;;
9745;SDS011;4912;50.836;12.958;2023-02-28T10:37:40;9.98;;;6.22;;
9745;SDS011;4912;50.836;12.958;2023-02-28T10:40:25;9.77;;;6.35;;
9745;SDS011;4912;50.836;12.958;2023-02-28T10:43:03;11.82;;;6.95;;
9745;SDS011;4912;50.836;12.958;2023-02-28T10:45:35;12.57;;;7.00;;
9745;SDS011;4912;50.836;12.958;2023-02-28T10:48:27;10.70;;;6.72;;
9745;SDS011;4912;50.836;12.958;2023-02-28T10:51:03;10.13;;;6.75;;
9745;SDS011;4912;50.836;12.958;2023-02-28T10:53:36;8.93;;;6.30;;
9745;SDS011;4912;50.836;12.958;2023-02-28T10:56:27;11.55;;;7.28;;
9745;SDS011;4912;50.836;12.958;2023-02-28T10:59:00;9.98;;;6.40;;
9745;SDS011;4912;50.836;12.958;2023-02-28T11:01:37;10.43;;;6.97;;
9745;SDS011;4912;50.836;12.958;2023-02-28T11:04:23;9.57;;;6.90;;
9745;SDS011;4912;50.836;12.958;2023-02-28T11:07:17;10.35;;;6.32;;
9745;SDS011;4912;50.836;12.958;2023-02-28T11:09:53;10.43;;;6.40;;
9745;SDS011;4912;50.836;12.958;2023-02-28T11:12:26;9.45;;;6.32;;
9745;SDS011;4912;50.836;12.958;2023-02-28T11:15:02;10.05;;;6.25;;
9745;SDS011;4912;50.836;12.958;2023-02-28T11:17:54;11.10;;;6.60;;
9745;SDS011;4912;50.836;12.958;2023-02-28T11:20:31;10.07;;;6.45;;
9745;SDS011;4912;50.836;12.958;2023-02-28T11:23:04;11.02;;;6.75;;
9745;SDS011;4912;50.836;12.958;2023-02-28T11:25:45;10.65;;;6.63;;
9745;SDS011;4912;50.836;12.958;2023-02-28T11:28:24;11.48;;;6.82;;
9745;SDS011;4912;50.836;12.958;2023-02-28T11:31:03;9.45;;;6.70;;
9745;SDS011;4912;50.836;12.958;2023-02-28T11:33:44;8.85;;;5.93;;
9745;SDS011;4912;50.836;12.958;2023-02-28T11:36:21;10.65;;;6.35;;
9745;SDS011;4912;50.836;12.958;2023-02-28T11:38:54;8.38;;;5.75;;
9745;SDS011;4912;50.836;12.958;2023-02-28T11:41:44;11.57;;;6.10;;
9745;SDS011;4912;50.836;12.958;2023-02-28T11:44:43;8.60;;;5.97;;
9745;SDS011;4912;50.836;12.958;2023-02-28T11:47:33;7.85;;;5.60;;
9745;SDS011;4912;50.836;12.958;2023-02-28T11:50:17;9.65;;;6.07;;
9745;SDS011;4912;50.836;12.958;2023-02-28T11:53:05;12.13;;;6.82;;
9745;SDS011;4912;50.836;12.958;2023-02-28T11:55:47;8.82;;;6.18;;
9745;SDS011;4912;50.836;12.958;2023-02-28T11:58:30;9.20;;;5.80;;
9745;SDS011;4912;50.836;12.958;2023-02-28T12:01:23;9.73;;;6.47;;
9745;SDS011;4912;50.836;12.958;2023-02-28T12:04:11;9.05;;;5.53;;
9745;SDS011;4912;50.836;12.958;2023-02-28T12:06:56;7.55;;;6.13;;
9745;SDS011;4912;50.836;12.958;2023-02-28T12:09:44;8.73;;;5.22;;
9745;SDS011;4912;50.836;12.958;2023-02-28T12:12:29;8.73;;;5.75;;
9745;SDS011;4912;50.836;12.958;2023-02-28T12:18:23;8.40;;;5.80;;
9745;SDS011;4912;50.836;12.958;2023-02-28T12:21:08;10.02;;;6.70;;
9745;SDS011;4912;50.836;12.958;2023-02-28T12:24:00;8.05;;;6.10;;
9745;SDS011;4912;50.836;12.958;2023-02-28T12:27:05;8.75;;;5.55;;
9745;SDS011;4912;50.836;12.958;2023-02-28T12:29:44;8.43;;;6.00;;
9745;SDS011;4912;50.836;12.958;2023-02-28T12:32:21;8.38;;;5.40;;
9745;SDS011;4912;50.836;12.958;2023-02-28T12:35:01;7.15;;;5.57;;
9745;SDS011;4912;50.836;12.958;2023-02-28T12:37:43;6.80;;;5.00;;
9745;SDS011;4912;50.836;12.958;2023-02-28T12:40:20;7.13;;;5.55;;
9745;SDS011;4912;50.836;12.958;2023-02-28T12:42:56;8.13;;;6.07;;
9745;SDS011;4912;50.836;12.958;2023-02-28T12:45:36;12.27;;;6.95;;
9745;SDS011;4912;50.836;12.958;2023-02-28T12:48:15;7.78;;;5.72;;
9745;SDS011;4912;50.836;12.958;2023-02-28T12:50:50;7.00;;;5.50;;
9745;SDS011;4912;50.836;12.958;2023-02-28T12:53:23;6.68;;;5.25;;
9745;SDS011;4912;50.836;12.958;2023-02-28T12:56:05;8.30;;;5.75;;
9745;SDS011;4912;50.836;12.958;2023-02-28T12:58:48;8.88;;;5.97;;
9745;SDS011;4912;50.836;12.958;2023-02-28T13:01:28;9.85;;;5.72;;
9745;SDS011;4912;50.836;12.958;2023-02-28T13:04:21;8.70;;;6.35;;
9745;SDS011;4912;50.836;12.958;2023-02-28T13:07:43;9.43;;;6.40;;
9745;SDS011;4912;50.836;12.958;2023-02-28T13:10:40;8.73;;;6.10;;
9745;SDS011;4912;50.836;12.958;2023-02-28T13:13:15;8.40;;;5.85;;
9745;SDS011;4912;50.836;12.958;2023-02-28T13:16:01;7.70;;;5.70;;
9745;SDS011;4912;50.836;12.958;2023-02-28T13:18:36;8.20;;;6.28;;
9745;SDS011;4912;50.836;12.958;2023-02-28T13:21:09;8.45;;;6.22;;
9745;SDS011;4912;50.836;12.958;2023-02-28T13:24:00;9.25;;;6.50;;
9745;SDS011;4912;50.836;12.958;2023-02-28T13:30:00;9.43;;;6.55;;
9745;SDS011;4912;50.836;12.958;2023-02-28T13:32:37;10.63;;;6.72;;
9745;SDS011;4912;50.836;12.958;2023-02-28T13:35:14;8.48;;;7.03;;
9745;SDS011;4912;50.836;12.958;2023-02-28T13:44:13;9.70;;;7.47;;
9745;SDS011;4912;50.836;12.958;2023-02-28T13:56:22;12.18;;;7.13;;
9745;SDS011;4912;50.836;12.958;2023-02-28T13:59:06;8.90;;;7.00;;
9745;SDS011;4912;50.836;12.958;2023-02-28T14:01:55;11.00;;;6.90;;
9745;SDS011;4912;50.836;12.958;2023-02-28T14:04:49;10.20;;;7.05;;
9745;SDS011;4912;50.836;12.958;2023-02-28T14:07:33;8.55;;;6.90;;
9745;SDS011;4912;50.836;12.958;2023-02-28T14:10:20;10.05;;;7.28;;
9745;SDS011;4912;50.836;12.958;2023-02-28T14:13:00;9.75;;;7.30;;
9745;SDS011;4912;50.836;12.958;2023-02-28T14:15:46;11.45;;;6.70;;
9745;SDS011;4912;50.836;12.958;2023-02-28T14:18:25;13.20;;;7.00;;
9745;SDS011;4912;50.836;12.958;2023-02-28T14:21:01;10.60;;;6.82;;
9745;SDS011;4912;50.836;12.958;2023-02-28T14:23:50;10.82;;;6.80;;
9745;SDS011;4912;50.836;12.958;2023-02-28T14:27:06;10.70;;;7.30;;
9745;SDS011;4912;50.836;12.958;2023-02-28T14:33:20;10.63;;;7.05;;
9745;SDS011;4912;50.836;12.958;2023-02-28T14:36:00;11.57;;;7.93;;
9745;SDS011;4912;50.836;12.958;2023-02-28T14:38:39;10.43;;;7.37;;
9745;SDS011;4912;50.836;12.958;2023-02-28T14:41:18;10.82;;;7.20;;
9745;SDS011;4912;50.836;12.958;2023-02-28T14:43:53;13.35;;;8.00;;
9745;SDS011;4912;50.836;12.958;2023-02-28T14:46:27;15.90;;;7.32;;
9745;SDS011;4912;50.836;12.958;2023-02-28T14:49:05;10.10;;;7.38;;
9745;SDS011;4912;50.836;12.958;2023-02-28T14:51:43;10.88;;;7.60;;
9745;SDS011;4912;50.836;12.958;2023-02-28T14:54:14;11.02;;;7.70;;
9745;SDS011;4912;50.836;12.958;2023-02-28T14:56:49;11.25;;;7.28;;
9745;SDS011;4912;50.836;12.958;2023-02-28T14:59:24;11.60;;;7.20;;
9745;SDS011;4912;50.836;12.958;2023-02-28T15:04:55;11.77;;;7.80;;
9745;SDS011;4912;50.836;12.958;2023-02-28T15:07:28;11.03;;;7.20;;
9745;SDS011;4912;50.836;12.958;2023-02-28T15:10:13;11.70;;;7.05;;
9745;SDS011;4912;50.836;12.958;2023-02-28T15:12:53;11.27;;;7.38;;
9745;SDS011;4912;50.836;12.958;2023-02-28T15:15:27;11.48;;;7.20;;
9745;SDS011;4912;50.836;12.958;2023-02-28T15:18:28;10.82;;;7.85;;
9745;SDS011;4912;50.836;12.958;2023-02-28T15:21:06;12.07;;;7.95;;
9745;SDS011;4912;50.836;12.958;2023-02-28T15:23:45;11.25;;;8.20;;
9745;SDS011;4912;50.836;12.958;2023-02-28T15:26:21;14.43;;;8.50;;
9745;SDS011;4912;50.836;12.958;2023-02-28T15:28:59;13.13;;;8.60;;
9745;SDS011;4912;50.836;12.958;2023-02-28T15:31:34;12.93;;;8.27;;
9745;SDS011;4912;50.836;12.958;2023-02-28T15:34:23;12.60;;;8.52;;
9745;SDS011;4912;50.836;12.958;2023-02-28T15:39:58;13.98;;;8.60;;
9745;SDS011;4912;50.836;12.958;2023-02-28T15:42:39;14.23;;;8.77;;
9745;SDS011;4912;50.836;12.958;2023-02-28T15:48:01;15.02;;;9.40;;
9745;SDS011;4912;50.836;12.958;2023-02-28T15:50:40;14.10;;;9.68;;
9745;SDS011;4912;50.836;12.958;2023-02-28T15:53:14;14.45;;;9.57;;
9745;SDS011;4912;50.836;12.958;2023-02-28T15:55:52;17.13;;;10.90;;
9745;SDS011;4912;50.836;12.958;2023-02-28T15:58:26;16.92;;;10.68;;
9745;SDS011;4912;50.836;12.958;2023-02-28T16:01:08;16.17;;;11.27;;
9745;SDS011;4912;50.836;12.958;2023-02-28T16:03:51;18.58;;;10.48;;
9745;SDS011;4912;50.836;12.958;2023-02-28T16:06:32;17.45;;;10.63;;
9745;SDS011;4912;50.836;12.958;2023-02-28T16:11:41;22.00;;;10.77;;
9745;SDS011;4912;50.836;12.958;2023-02-28T16:14:16;17.90;;;12.00;;
9745;SDS011;4912;50.836;12.958;2023-02-28T16:16:52;17.77;;;11.30;;
9745;SDS011;4912;50.836;12.958;2023-02-28T16:19:26;25.00;;;12.07;;
9745;SDS011;4912;50.836;12.958;2023-02-28T16:22:00;16.90;;;11.02;;
9745;SDS011;4912;50.836;12.958;2023-02-28T16:24:30;23.20;;;11.25;;
9745;SDS011;4912;50.836;12.958;2023-02-28T16:27:01;20.35;;;12.05;;
9745;SDS011;4912;50.836;12.958;2023-02-28T16:29:32;19.13;;;11.68;;
9745;SDS011;4912;50.836;12.958;2023-02-28T16:32:07;22.53;;;12.50;;
9745;SDS011;4912;50.836;12.958;2023-02-28T16:34:42;20.40;;;11.50;;
9745;SDS011;4912;50.836;12.958;2023-02-28T16:37:13;18.13;;;10.53;;
9745;SDS011;4912;50.836;12.958;2023-02-28T16:39:45;17.73;;;10.47;;
9745;SDS011;4912;50.836;12.958;2023-02-28T16:42:20;18.73;;;10.77;;
9745;SDS011;4912;50.836;12.958;2023-02-28T16:44:53;19.43;;;10.73;;
9745;SDS011;4912;50.836;12.958;2023-02-28T16:47:27;19.97;;;11.00;;